sensor_id;sensor_type;location;lat;lon;timestamp;pressure;altitude;pressure_sealevel;temperature;humidity
42887;BME280;29032;56.028;92.904;2023-04-27T00:04:26;100143.63;;;3.35;48.11
42887;BME280;29032;56.028;92.904;2023-04-27T00:09:29;100137.53;;;3.49;48.31
42887;BME280;29032;56.028;92.904;2023-04-27T00:14:31;100133.59;;;3.59;47.51
42887;BME280;29032;56.028;92.904;2023-04-27T00:19:33;100144.28;;;3.76;46.76
42887;BME280;29032;56.028;92.904;2023-04-27T00:24:55;100128.75;;;3.82;46.84
42887;BME280;29032;56.028;92.904;2023-04-27T00:30:03;100132.69;;;3.90;47.11
42887;BME280;29032;56.028;92.904;2023-04-27T00:35:24;100140.94;;;3.99;46.61
42887;BME280;29032;56.028;92.904;2023-04-27T00:40:28;100149.94;;;3.90;47.22
42887;BME280;29032;56.028;92.904;2023-04-27T00:45:30;100143.38;;;3.97;47.20
42887;BME280;29032;56.028;92.904;2023-04-27T00:50:32;100146.56;;;4.05;46.48
42887;BME280;29032;56.028;92.904;2023-04-27T00:55:54;100148.13;;;4.15;46.23
42887;BME280;29032;56.028;92.904;2023-04-27T01:00:57;100159.88;;;4.15;45.94
42887;BME280;29032;56.028;92.904;2023-04-27T01:11:21;100149.59;;;4.34;45.04
42887;BME280;29032;56.028;92.904;2023-04-27T01:16:23;100149.78;;;4.31;45.12
42887;BME280;29032;56.028;92.904;2023-04-27T01:21:25;100149.16;;;4.36;45.50
42887;BME280;29032;56.028;92.904;2023-04-27T01:45:26;100160.59;;;4.07;45.90
42887;BME280;29032;56.028;92.904;2023-04-27T01:50:28;100150.81;;;4.42;45.38
42887;BME280;29032;56.028;92.904;2023-04-27T02:01:49;100143.03;;;4.41;45.37
42887;BME280;29032;56.028;92.904;2023-04-27T02:06:51;100143.97;;;4.89;44.83
42887;BME280;29032;56.028;92.904;2023-04-27T02:11:53;100145.81;;;5.25;43.57
42887;BME280;29032;56.028;92.904;2023-04-27T02:16:56;100136.91;;;5.54;42.90
42887;BME280;29032;56.028;92.904;2023-04-27T02:21:58;100131.69;;;5.80;42.65
42887;BME280;29032;56.028;92.904;2023-04-27T02:27:00;100120.94;;;6.06;42.27
42887;BME280;29032;56.028;92.904;2023-04-27T02:32:22;100104.31;;;6.30;41.58
42887;BME280;29032;56.028;92.904;2023-04-27T02:37:24;100109.25;;;6.41;40.73
42887;BME280;29032;56.028;92.904;2023-04-27T02:42:26;100103.25;;;6.57;40.35
42887;BME280;29032;56.028;92.904;2023-04-27T02:47:31;100092.03;;;6.61;39.66
42887;BME280;29032;56.028;92.904;2023-04-27T02:52:33;100099.38;;;6.49;39.75
42887;BME280;29032;56.028;92.904;2023-04-27T02:57:35;100093.00;;;6.58;39.33
42887;BME280;29032;56.028;92.904;2023-04-27T03:02:39;100075.66;;;6.72;39.42
42887;BME280;29032;56.028;92.904;2023-04-27T03:07:41;100065.91;;;6.91;38.71
42887;BME280;29032;56.028;92.904;2023-04-27T03:12:43;100075.09;;;7.03;38.04
42887;BME280;29032;56.028;92.904;2023-04-27T03:23:08;100076.25;;;7.32;37.55
42887;BME280;29032;56.028;92.904;2023-04-27T03:28:10;100075.09;;;7.38;36.76
42887;BME280;29032;56.028;92.904;2023-04-27T03:33:14;100065.03;;;7.35;37.13
42887;BME280;29032;56.028;92.904;2023-04-27T03:38:16;100061.84;;;7.42;36.70
42887;BME280;29032;56.028;92.904;2023-04-27T03:43:19;100057.88;;;7.69;36.87
42887;BME280;29032;56.028;92.904;2023-04-27T03:48:23;100059.13;;;7.94;35.73
42887;BME280;29032;56.028;92.904;2023-04-27T03:53:28;100046.31;;;8.17;35.14
42887;BME280;29032;56.028;92.904;2023-04-27T03:58:30;100052.97;;;8.31;35.23
42887;BME280;29032;56.028;92.904;2023-04-27T04:20:23;100038.50;;;8.47;32.77
42887;BME280;29032;56.028;92.904;2023-04-27T04:25:25;100021.59;;;8.40;31.74
42887;BME280;29032;56.028;92.904;2023-04-27T04:36:08;100032.88;;;8.36;32.58
42887;BME280;29032;56.028;92.904;2023-04-27T04:41:10;100023.78;;;8.30;32.13
42887;BME280;29032;56.028;92.904;2023-04-27T04:46:12;100019.13;;;8.47;33.05
42887;BME280;29032;56.028;92.904;2023-04-27T04:51:16;100016.47;;;8.58;32.31
42887;BME280;29032;56.028;92.904;2023-04-27T04:56:19;100021.00;;;8.61;32.65
42887;BME280;29032;56.028;92.904;2023-04-27T05:01:21;100025.81;;;8.67;32.32
42887;BME280;29032;56.028;92.904;2023-04-27T05:06:25;100028.38;;;8.76;32.70
42887;BME280;29032;56.028;92.904;2023-04-27T05:11:27;100014.09;;;8.83;32.46
42887;BME280;29032;56.028;92.904;2023-04-27T05:16:29;100001.75;;;8.84;32.32
42887;BME280;29032;56.028;92.904;2023-04-27T05:21:32;100011.69;;;9.07;32.11
42887;BME280;29032;56.028;92.904;2023-04-27T05:26:34;99994.19;;;9.33;31.70
42887;BME280;29032;56.028;92.904;2023-04-27T05:31:36;99994.75;;;9.48;31.85
42887;BME280;29032;56.028;92.904;2023-04-27T05:36:40;99991.25;;;9.53;31.50
42887;BME280;29032;56.028;92.904;2023-04-27T05:41:42;99975.13;;;9.52;31.91
42887;BME280;29032;56.028;92.904;2023-04-27T05:52:24;99980.94;;;9.65;31.82
42887;BME280;29032;56.028;92.904;2023-04-27T05:57:26;99966.84;;;9.74;32.12
42887;BME280;29032;56.028;92.904;2023-04-27T06:02:28;99953.00;;;9.80;31.76
42887;BME280;29032;56.028;92.904;2023-04-27T06:07:32;99943.41;;;10.03;32.44
42887;BME280;29032;56.028;92.904;2023-04-27T06:12:52;99947.91;;;10.40;31.83
42887;BME280;29032;56.028;92.904;2023-04-27T06:17:54;99937.56;;;10.46;31.17
42887;BME280;29032;56.028;92.904;2023-04-27T06:22:59;99924.94;;;10.50;31.49
42887;BME280;29032;56.028;92.904;2023-04-27T06:28:01;99934.47;;;10.72;30.80
42887;BME280;29032;56.028;92.904;2023-04-27T06:33:03;99919.31;;;10.78;30.53
42887;BME280;29032;56.028;92.904;2023-04-27T06:38:07;99917.03;;;10.82;30.36
42887;BME280;29032;56.028;92.904;2023-04-27T06:43:09;99910.47;;;10.86;30.22
42887;BME280;29032;56.028;92.904;2023-04-27T06:48:11;99902.28;;;11.04;30.88
42887;BME280;29032;56.028;92.904;2023-04-27T06:53:14;99903.50;;;11.20;30.25
42887;BME280;29032;56.028;92.904;2023-04-27T06:58:16;99892.03;;;11.35;30.33
42887;BME280;29032;56.028;92.904;2023-04-27T07:03:19;99897.06;;;11.36;29.98
42887;BME280;29032;56.028;92.904;2023-04-27T07:08:22;99888.72;;;11.42;30.01
42887;BME280;29032;56.028;92.904;2023-04-27T07:13:24;99886.34;;;11.52;30.55
42887;BME280;29032;56.028;92.904;2023-04-27T07:18:26;99884.25;;;11.63;30.54
42887;BME280;29032;56.028;92.904;2023-04-27T07:23:30;99881.19;;;11.67;29.87
42887;BME280;29032;56.028;92.904;2023-04-27T07:28:32;99864.88;;;11.52;30.47
42887;BME280;29032;56.028;92.904;2023-04-27T07:33:34;99875.56;;;11.43;30.47
42887;BME280;29032;56.028;92.904;2023-04-27T07:38:38;99871.84;;;11.34;30.84
42887;BME280;29032;56.028;92.904;2023-04-27T07:43:40;99872.84;;;11.31;30.93
42887;BME280;29032;56.028;92.904;2023-04-27T07:54:22;99859.47;;;11.30;31.35
42887;BME280;29032;56.028;92.904;2023-04-27T07:59:27;99854.44;;;11.28;31.37
42887;BME280;29032;56.028;92.904;2023-04-27T08:04:29;99862.06;;;11.22;31.63
42887;BME280;29032;56.028;92.904;2023-04-27T08:09:32;99864.91;;;11.11;31.42
42887;BME280;29032;56.028;92.904;2023-04-27T08:19:55;99862.63;;;11.09;31.65
42887;BME280;29032;56.028;92.904;2023-04-27T08:24:58;99862.44;;;11.02;31.64
42887;BME280;29032;56.028;92.904;2023-04-27T08:30:00;99860.94;;;11.01;32.45
42887;BME280;29032;56.028;92.904;2023-04-27T08:35:03;99853.88;;;11.00;32.12
42887;BME280;29032;56.028;92.904;2023-04-27T08:40:08;99857.91;;;10.99;32.22
42887;BME280;29032;56.028;92.904;2023-04-27T08:51:07;99846.72;;;11.10;32.24
42887;BME280;29032;56.028;92.904;2023-04-27T08:56:13;99842.47;;;11.03;32.53
42887;BME280;29032;56.028;92.904;2023-04-27T09:01:15;99834.66;;;11.02;32.29
42887;BME280;29032;56.028;92.904;2023-04-27T09:06:28;99830.81;;;11.10;32.26
42887;BME280;29032;56.028;92.904;2023-04-27T09:11:33;99829.88;;;10.97;33.05
42887;BME280;29032;56.028;92.904;2023-04-27T09:16:35;99807.72;;;10.91;33.17
42887;BME280;29032;56.028;92.904;2023-04-27T09:26:59;99815.59;;;10.81;33.72
42887;BME280;29032;56.028;92.904;2023-04-27T09:32:01;99801.94;;;10.83;33.71
42887;BME280;29032;56.028;92.904;2023-04-27T09:37:22;99806.41;;;10.98;33.54
42887;BME280;29032;56.028;92.904;2023-04-27T09:42:26;99802.28;;;11.10;32.86
42887;BME280;29032;56.028;92.904;2023-04-27T09:47:28;99795.63;;;11.24;32.58
42887;BME280;29032;56.028;92.904;2023-04-27T09:52:31;99794.75;;;11.41;32.40
42887;BME280;29032;56.028;92.904;2023-04-27T09:57:38;99791.41;;;11.48;32.08
42887;BME280;29032;56.028;92.904;2023-04-27T10:03:12;99775.75;;;11.45;32.09
42887;BME280;29032;56.028;92.904;2023-04-27T10:08:16;99778.38;;;11.31;31.90
42887;BME280;29032;56.028;92.904;2023-04-27T10:18:50;99773.47;;;11.49;31.81
42887;BME280;29032;56.028;92.904;2023-04-27T10:23:52;99753.53;;;11.45;31.67
42887;BME280;29032;56.028;92.904;2023-04-27T10:29:04;99747.53;;;11.65;31.82
42887;BME280;29032;56.028;92.904;2023-04-27T10:34:10;99734.53;;;11.73;31.35
42887;BME280;29032;56.028;92.904;2023-04-27T10:39:17;99725.25;;;11.89;31.75
42887;BME280;29032;56.028;92.904;2023-04-27T10:44:27;99717.06;;;12.22;32.41
42887;BME280;29032;56.028;92.904;2023-04-27T10:49:30;99707.38;;;12.28;31.24
42887;BME280;29032;56.028;92.904;2023-04-27T10:54:32;99700.53;;;12.29;31.23
42887;BME280;29032;56.028;92.904;2023-04-27T10:59:47;99697.22;;;12.31;31.91
42887;BME280;29032;56.028;92.904;2023-04-27T11:05:15;99691.97;;;12.27;31.62
42887;BME280;29032;56.028;92.904;2023-04-27T11:15:44;99673.66;;;12.13;31.78
42887;BME280;29032;56.028;92.904;2023-04-27T11:20:48;99663.94;;;12.01;32.22
42887;BME280;29032;56.028;92.904;2023-04-27T11:25:50;99666.50;;;11.99;32.38
42887;BME280;29032;56.028;92.904;2023-04-27T11:30:57;99662.00;;;12.14;32.06
42887;BME280;29032;56.028;92.904;2023-04-27T11:36:03;99650.75;;;12.26;31.52
42887;BME280;29032;56.028;92.904;2023-04-27T11:52:26;99624.50;;;12.21;32.19
42887;BME280;29032;56.028;92.904;2023-04-27T12:02:51;99623.38;;;11.92;32.66
42887;BME280;29032;56.028;92.904;2023-04-27T12:07:53;99608.84;;;11.80;33.10
42887;BME280;29032;56.028;92.904;2023-04-27T12:12:55;99611.19;;;11.76;33.21
42887;BME280;29032;56.028;92.904;2023-04-27T12:17:59;99604.41;;;11.72;32.89
42887;BME280;29032;56.028;92.904;2023-04-27T12:23:01;99615.81;;;11.68;32.78
42887;BME280;29032;56.028;92.904;2023-04-27T12:28:04;99598.09;;;11.71;33.06
42887;BME280;29032;56.028;92.904;2023-04-27T12:33:07;99586.97;;;11.71;32.81
42887;BME280;29032;56.028;92.904;2023-04-27T12:38:09;99586.88;;;11.58;33.21
42887;BME280;29032;56.028;92.904;2023-04-27T12:43:11;99578.56;;;11.58;33.58
42887;BME280;29032;56.028;92.904;2023-04-27T12:48:15;99586.81;;;11.63;33.54
42887;BME280;29032;56.028;92.904;2023-04-27T12:53:35;99580.97;;;11.67;33.57
42887;BME280;29032;56.028;92.904;2023-04-27T12:58:37;99574.34;;;11.51;34.25
42887;BME280;29032;56.028;92.904;2023-04-27T13:03:41;99568.31;;;11.47;33.75
42887;BME280;29032;56.028;92.904;2023-04-27T13:08:43;99568.63;;;11.44;34.30
42887;BME280;29032;56.028;92.904;2023-04-27T13:19:07;99555.25;;;11.61;34.25
42887;BME280;29032;56.028;92.904;2023-04-27T13:29:48;99544.53;;;11.71;34.11
42887;BME280;29032;56.028;92.904;2023-04-27T13:34:51;99539.34;;;11.80;33.98
42887;BME280;29032;56.028;92.904;2023-04-27T13:39:53;99562.72;;;11.90;34.04
42887;BME280;29032;56.028;92.904;2023-04-27T13:45:14;99547.59;;;12.05;33.79
42887;BME280;29032;56.028;92.904;2023-04-27T13:50:18;99550.31;;;11.91;34.33
42887;BME280;29032;56.028;92.904;2023-04-27T13:55:20;99544.22;;;11.74;34.50
42887;BME280;29032;56.028;92.904;2023-04-27T14:00:22;99541.00;;;11.70;34.41
42887;BME280;29032;56.028;92.904;2023-04-27T14:05:25;99545.72;;;11.75;34.37
42887;BME280;29032;56.028;92.904;2023-04-27T14:10:27;99547.47;;;11.78;34.32
42887;BME280;29032;56.028;92.904;2023-04-27T14:15:29;99537.75;;;11.85;33.89
42887;BME280;29032;56.028;92.904;2023-04-27T14:20:33;99521.66;;;11.97;34.42
42887;BME280;29032;56.028;92.904;2023-04-27T14:25:35;99518.28;;;12.04;34.61
42887;BME280;29032;56.028;92.904;2023-04-27T14:30:37;99512.75;;;12.17;34.27
42887;BME280;29032;56.028;92.904;2023-04-27T14:35:41;99510.88;;;12.25;34.50
42887;BME280;29032;56.028;92.904;2023-04-27T14:40:43;99505.13;;;12.36;34.03
42887;BME280;29032;56.028;92.904;2023-04-27T14:45:45;99507.81;;;12.42;34.73
42887;BME280;29032;56.028;92.904;2023-04-27T14:56:09;99501.72;;;12.43;34.05
42887;BME280;29032;56.028;92.904;2023-04-27T15:06:52;99489.22;;;12.18;36.54
42887;BME280;29032;56.028;92.904;2023-04-27T15:11:55;99487.69;;;12.04;36.80
42887;BME280;29032;56.028;92.904;2023-04-27T15:16:56;99473.94;;;11.92;38.35
42887;BME280;29032;56.028;92.904;2023-04-27T15:22:00;99462.97;;;11.81;38.96
42887;BME280;29032;56.028;92.904;2023-04-27T15:32:22;99451.44;;;11.77;40.01
42887;BME280;29032;56.028;92.904;2023-04-27T15:37:44;99447.16;;;11.76;40.30
42887;BME280;29032;56.028;92.904;2023-04-27T15:42:46;99445.19;;;11.71;40.58
42887;BME280;29032;56.028;92.904;2023-04-27T15:47:48;99438.16;;;11.70;41.18
42887;BME280;29032;56.028;92.904;2023-04-27T15:52:52;99433.75;;;11.75;41.67
42887;BME280;29032;56.028;92.904;2023-04-27T15:57:54;99417.00;;;11.80;41.58
42887;BME280;29032;56.028;92.904;2023-04-27T16:02:56;99424.66;;;11.74;41.81
42887;BME280;29032;56.028;92.904;2023-04-27T16:07:59;99422.50;;;11.67;41.83
42887;BME280;29032;56.028;92.904;2023-04-27T16:13:02;99414.34;;;11.56;42.72
42887;BME280;29032;56.028;92.904;2023-04-27T16:18:04;99403.41;;;11.45;43.14
42887;BME280;29032;56.028;92.904;2023-04-27T16:23:07;99395.53;;;11.30;44.23
42887;BME280;29032;56.028;92.904;2023-04-27T16:28:09;99388.13;;;11.19;44.48
42887;BME280;29032;56.028;92.904;2023-04-27T16:33:31;99377.00;;;11.19;44.73
42887;BME280;29032;56.028;92.904;2023-04-27T16:43:55;99378.19;;;10.86;46.77
42887;BME280;29032;56.028;92.904;2023-04-27T16:48:57;99372.94;;;10.82;47.26
42887;BME280;29032;56.028;92.904;2023-04-27T16:54:19;99372.47;;;10.78;48.62
42887;BME280;29032;56.028;92.904;2023-04-27T17:04:42;99347.66;;;10.62;49.96
42887;BME280;29032;56.028;92.904;2023-04-27T17:10:05;99341.97;;;10.54;52.26
42887;BME280;29032;56.028;92.904;2023-04-27T17:15:08;99342.13;;;10.43;51.95
42887;BME280;29032;56.028;92.904;2023-04-27T17:25:33;99325.16;;;10.46;53.13
42887;BME280;29032;56.028;92.904;2023-04-27T17:30:35;99315.25;;;10.32;54.00
42887;BME280;29032;56.028;92.904;2023-04-27T17:35:37;99313.47;;;10.35;54.69
42887;BME280;29032;56.028;92.904;2023-04-27T17:40:41;99295.91;;;10.45;54.63
42887;BME280;29032;56.028;92.904;2023-04-27T17:46:05;99283.47;;;10.52;54.49
42887;BME280;29032;56.028;92.904;2023-04-27T17:51:08;99267.66;;;10.47;54.93
42887;BME280;29032;56.028;92.904;2023-04-27T17:56:11;99268.66;;;10.49;55.11
42887;BME280;29032;56.028;92.904;2023-04-27T18:01:13;99261.28;;;10.52;54.91
42887;BME280;29032;56.028;92.904;2023-04-27T18:11:37;99252.28;;;10.46;55.52
42887;BME280;29032;56.028;92.904;2023-04-27T18:16:39;99248.53;;;10.43;56.02
42887;BME280;29032;56.028;92.904;2023-04-27T18:21:42;99260.81;;;10.48;55.92
42887;BME280;29032;56.028;92.904;2023-04-27T18:26:45;99260.81;;;10.48;56.59
42887;BME280;29032;56.028;92.904;2023-04-27T18:31:47;99243.97;;;10.46;56.30
42887;BME280;29032;56.028;92.904;2023-04-27T18:36:49;99232.66;;;10.44;56.91
42887;BME280;29032;56.028;92.904;2023-04-27T18:41:53;99235.34;;;10.49;56.69
42887;BME280;29032;56.028;92.904;2023-04-27T18:47:13;99222.13;;;10.55;55.73
42887;BME280;29032;56.028;92.904;2023-04-27T18:52:15;99224.09;;;10.42;57.72
42887;BME280;29032;56.028;92.904;2023-04-27T18:57:37;99217.63;;;10.52;56.02
42887;BME280;29032;56.028;92.904;2023-04-27T19:02:39;99205.03;;;10.33;57.97
42887;BME280;29032;56.028;92.904;2023-04-27T19:07:41;99207.59;;;10.31;58.25
42887;BME280;29032;56.028;92.904;2023-04-27T19:12:45;99199.06;;;10.28;58.84
42887;BME280;29032;56.028;92.904;2023-04-27T19:18:05;99180.75;;;10.39;57.60
42887;BME280;29032;56.028;92.904;2023-04-27T19:33:49;99171.25;;;10.15;59.70
42887;BME280;29032;56.028;92.904;2023-04-27T19:38:51;99172.00;;;10.16;59.61
42887;BME280;29032;56.028;92.904;2023-04-27T19:44:13;99153.03;;;10.20;59.74
42887;BME280;29032;56.028;92.904;2023-04-27T20:06:38;99120.66;;;10.28;61.20
42887;BME280;29032;56.028;92.904;2023-04-27T20:11:59;99117.06;;;10.65;59.69
42887;BME280;29032;56.028;92.904;2023-04-27T20:17:01;99101.44;;;10.49;59.50
42887;BME280;29032;56.028;92.904;2023-04-27T20:22:04;99111.75;;;10.48;59.40
42887;BME280;29032;56.028;92.904;2023-04-27T20:27:06;99096.19;;;10.45;59.66
42887;BME280;29032;56.028;92.904;2023-04-27T20:32:08;99092.53;;;10.37;60.43
42887;BME280;29032;56.028;92.904;2023-04-27T20:37:12;99082.41;;;10.40;60.10
42887;BME280;29032;56.028;92.904;2023-04-27T20:42:14;99090.59;;;10.32;60.44
42887;BME280;29032;56.028;92.904;2023-04-27T20:47:16;99085.34;;;10.28;60.45
42887;BME280;29032;56.028;92.904;2023-04-27T22:02:49;99035.53;;;10.04;65.06
42887;BME280;29032;56.028;92.904;2023-04-27T22:07:51;99048.03;;;10.30;63.75
42887;BME280;29032;56.028;92.904;2023-04-27T22:12:53;99046.34;;;10.40;63.34
42887;BME280;29032;56.028;92.904;2023-04-27T22:17:57;99019.34;;;10.40;63.54
42887;BME280;29032;56.028;92.904;2023-04-27T22:22:59;99035.47;;;10.42;63.08
42887;BME280;29032;56.028;92.904;2023-04-27T22:28:01;99019.59;;;10.42;62.97
42887;BME280;29032;56.028;92.904;2023-04-27T22:33:05;99035.91;;;10.46;63.19
42887;BME280;29032;56.028;92.904;2023-04-27T22:45:40;99005.59;;;10.03;64.18
42887;BME280;29032;56.028;92.904;2023-04-27T22:50:42;99014.41;;;10.33;63.11
42887;BME280;29032;56.028;92.904;2023-04-27T22:55:44;98993.88;;;10.55;62.29
42887;BME280;29032;56.028;92.904;2023-04-27T23:00:48;99005.53;;;10.67;62.28
42887;BME280;29032;56.028;92.904;2023-04-27T23:05:50;99011.41;;;10.63;62.35
42887;BME280;29032;56.028;92.904;2023-04-27T23:10:52;99009.16;;;10.75;61.89
